Time;durP1;ratioP1;P1;durP2;ratioP2;P2;SDS_P1;SDS_P2;PMS_P1;PMS_P2;Temp;Humidity;BMP_temperature;BMP_pressure;BME280_temperature;BME280_humidity;BME280_pressure;Samples;Min_cycle;Max_cycle;Signal;HPM_P1;HPM_P2
2021/09/21 00:00:31;;;;;;;16.30;14.90;;;11.90;99.90;;;;;;4957557;28;20696;-78
2021/09/21 00:02:58;;;;;;;16.07;14.63;;;11.90;99.90;;;;;;4968265;28;20245;-79
2021/09/21 00:05:25;;;;;;;15.27;14.07;;;12.00;99.90;;;;;;4970126;28;20267;-78
2021/09/21 00:07:52;;;;;;;17.30;15.77;;;12.10;99.90;;;;;;4957261;28;20207;-79
2021/09/21 00:10:19;;;;;;;17.00;15.30;;;12.10;99.90;;;;;;4955471;28;20302;-78
2021/09/21 00:12:46;;;;;;;16.30;14.90;;;12.10;99.90;;;;;;4956822;28;20204;-78
2021/09/21 00:15:16;;;;;;;17.67;16.03;;;12.00;99.90;;;;;;4966948;28;20251;-78
2021/09/21 00:17:44;;;;;;;16.43;14.90;;;12.10;99.90;;;;;;4973789;28;20646;-78
2021/09/21 00:20:18;;;;;;;17.73;16.03;;;12.10;99.90;;;;;;4957566;28;20614;-78
2021/09/21 00:22:45;;;;;;;17.53;16.10;;;12.10;99.90;;;;;;4972737;28;20207;-78
2021/09/21 00:25:14;;;;;;;17.40;15.90;;;12.10;99.90;;;;;;4968617;28;20224;-78
2021/09/21 00:27:42;;;;;;;17.63;16.13;;;12.10;99.90;;;;;;4955845;28;20223;-79
2021/09/21 00:30:16;;;;;;;13.87;10.13;;;12.10;99.90;;;;;;4951022;28;20303;-78
2021/09/21 00:32:45;;;;;;;11.97;10.40;;;12.10;99.90;;;;;;4970388;28;20573;-79
2021/09/21 00:35:12;;;;;;;12.97;10.97;;;12.10;99.90;;;;;;4968959;28;20741;-78
2021/09/21 00:37:39;;;;;;;12.87;10.23;;;12.10;99.90;;;;;;4970313;28;20200;-78
2021/09/21 00:40:07;;;;;;;13.40;10.80;;;12.00;99.90;;;;;;4963888;28;20212;-78
2021/09/21 00:42:34;;;;;;;11.87;9.73;;;12.10;99.90;;;;;;4970036;28;20676;-78
2021/09/21 00:45:04;;;;;;;13.97;10.73;;;12.00;99.90;;;;;;4966217;28;20691;-79
2021/09/21 00:47:33;;;;;;;12.67;10.27;;;12.00;99.90;;;;;;4954225;28;20208;-79
2021/09/21 00:50:00;;;;;;;12.73;11.07;;;12.00;99.90;;;;;;4967345;28;20209;-78
2021/09/21 00:52:27;;;;;;;12.00;10.00;;;12.10;99.90;;;;;;4970685;28;20207;-78
2021/09/21 00:54:54;;;;;;;11.07;9.97;;;12.10;99.90;;;;;;4970161;28;20199;-78
2021/09/21 00:57:21;;;;;;;13.60;11.20;;;12.00;99.90;;;;;;4952973;28;20207;-78
2021/09/21 00:59:48;;;;;;;12.43;10.50;;;12.10;99.90;;;;;;4956305;28;20200;-77
2021/09/21 01:02:15;;;;;;;13.53;11.47;;;12.00;99.90;;;;;;4946775;29;20267;-78
2021/09/21 01:04:43;;;;;;;12.17;10.87;;;12.10;99.90;;;;;;4954908;28;20207;-77
2021/09/21 01:07:09;;;;;;;12.07;10.57;;;12.10;99.90;;;;;;4973800;28;20254;-77
2021/09/21 01:09:36;;;;;;;12.53;10.63;;;12.10;99.90;;;;;;4972630;28;20208;-78
2021/09/21 01:12:03;;;;;;;20.03;18.33;;;12.10;99.90;;;;;;4967607;28;20223;-78
2021/09/21 01:14:30;;;;;;;18.80;17.17;;;12.10;99.90;;;;;;4956262;28;20229;-78
2021/09/21 01:16:57;;;;;;;19.20;17.40;;;12.10;99.90;;;;;;4956560;28;20211;-78
2021/09/21 01:19:25;;;;;;;18.27;16.67;;;12.10;99.90;;;;;;4968005;28;20243;-78
2021/09/21 01:21:53;;;;;;;17.93;16.43;;;12.10;99.90;;;;;;4970127;28;20310;-78
2021/09/21 01:24:22;;;;;;;19.23;17.53;;;12.10;99.90;;;;;;4970171;28;20210;-78
2021/09/21 01:26:50;;;;;;;17.73;16.13;;;12.10;99.90;;;;;;4955982;28;20306;-77
2021/09/21 01:29:16;;;;;;;17.27;15.87;;;12.10;99.90;;;;;;4955836;28;20636;-77
2021/09/21 01:31:44;;;;;;;17.00;15.50;;;12.20;99.90;;;;;;4968178;28;20224;-77
2021/09/21 01:34:10;;;;;;;17.97;16.27;;;12.20;99.90;;;;;;4967732;28;20307;-78
2021/09/21 01:36:37;;;;;;;18.83;17.13;;;12.10;99.90;;;;;;4955858;28;20624;-78
2021/09/21 01:39:06;;;;;;;19.57;17.87;;;12.10;99.90;;;;;;4955655;28;20589;-78
2021/09/21 01:41:32;;;;;;;19.43;17.63;;;12.10;99.90;;;;;;4972806;28;20705;-78
2021/09/21 01:43:59;;;;;;;17.90;16.30;;;12.10;99.90;;;;;;4965248;28;20199;-78
2021/09/21 01:46:26;;;;;;;18.37;16.57;;;12.20;99.90;;;;;;4969885;28;20282;-78
2021/09/21 01:48:53;;;;;;;19.33;17.57;;;12.20;99.90;;;;;;4948927;28;20199;-78
2021/09/21 01:51:28;;;;;;;19.47;17.73;;;12.20;99.90;;;;;;4949127;29;20228;-78
2021/09/21 01:54:03;;;;;;;19.47;17.57;;;12.20;99.90;;;;;;4948536;28;20198;-78
2021/09/21 01:59:15;;;;;;;18.40;16.77;;;12.30;99.90;;;;;;4966093;28;20199;-77
2021/09/21 02:01:42;;;;;;;18.40;16.87;;;12.30;99.90;;;;;;4971819;28;20709;-78
2021/09/21 02:04:09;;;;;;;18.13;16.40;;;12.30;99.90;;;;;;4969111;28;20253;-78
2021/09/21 02:06:38;;;;;;;17.73;16.23;;;12.30;99.90;;;;;;4968068;28;20570;-78
2021/09/21 02:09:07;;;;;;;18.00;16.30;;;12.40;99.90;;;;;;4966314;28;20243;-78
2021/09/21 02:11:36;;;;;;;19.10;17.40;;;12.40;99.90;;;;;;4966848;28;20224;-78
2021/09/21 02:14:04;;;;;;;17.60;16.10;;;12.40;99.90;;;;;;4969779;28;20653;-78
2021/09/21 02:16:32;;;;;;;18.90;17.20;;;12.40;99.90;;;;;;4967637;28;20196;-78
2021/09/21 02:19:00;;;;;;;21.03;19.03;;;12.40;99.90;;;;;;4952348;29;20581;-77
2021/09/21 02:21:27;;;;;;;19.23;17.63;;;12.40;99.90;;;;;;4953634;28;20228;-77
2021/09/21 02:23:56;;;;;;;18.93;17.43;;;12.30;99.90;;;;;;4973165;28;20334;-78
2021/09/21 02:26:23;;;;;;;18.77;17.07;;;12.40;99.90;;;;;;4969150;28;20706;-78
2021/09/21 02:28:52;;;;;;;19.07;17.37;;;12.40;99.90;;;;;;4964481;28;20211;-78
2021/09/21 02:31:19;;;;;;;18.83;17.13;;;12.40;99.90;;;;;;4950474;28;20234;-78
2021/09/21 02:33:46;;;;;;;19.70;18.10;;;12.40;99.90;;;;;;4956423;28;20621;-77
2021/09/21 02:36:13;;;;;;;20.80;18.87;;;12.40;99.90;;;;;;4968265;28;20651;-78
2021/09/21 02:38:40;;;;;;;20.23;18.43;;;12.40;99.90;;;;;;4952394;28;20267;-78
2021/09/21 02:41:08;;;;;;;20.90;19.10;;;12.40;99.90;;;;;;4949317;28;20514;-81
2021/09/21 02:43:35;;;;;;;13.73;12.17;;;12.40;99.90;;;;;;4950207;28;20259;-82
2021/09/21 02:46:03;;;;;;;13.07;10.90;;;12.40;99.90;;;;;;4976561;28;20212;-82
2021/09/21 02:48:32;;;;;;;13.37;9.70;;;12.30;99.90;;;;;;4971251;28;20566;-82
2021/09/21 02:50:59;;;;;;;13.33;11.17;;;12.40;99.90;;;;;;4957296;28;20247;-82
2021/09/21 02:53:26;;;;;;;12.43;10.17;;;12.30;99.90;;;;;;4959788;28;20253;-81
2021/09/21 02:55:53;;;;;;;9.57;8.57;;;12.30;99.90;;;;;;4956726;28;20201;-81
2021/09/21 02:58:19;;;;;;;11.10;9.47;;;12.40;99.90;;;;;;4964384;28;20201;-82
2021/09/21 03:00:49;;;;;;;11.10;9.63;;;12.40;99.90;;;;;;4949848;28;20223;-82
2021/09/21 03:03:18;;;;;;;10.50;9.13;;;12.40;99.90;;;;;;4954873;28;20232;-81
2021/09/21 03:05:52;;;;;;;15.43;14.13;;;12.40;99.90;;;;;;4970724;28;20231;-82
2021/09/21 03:08:21;;;;;;;11.63;9.67;;;12.40;99.90;;;;;;4974240;28;20211;-81
2021/09/21 03:11:03;;;;;;;16.63;15.23;;;12.40;99.90;;;;;;4961910;28;20241;-82
2021/09/21 03:13:52;;;;;;;17.07;15.67;;;12.40;99.90;;;;;;4955591;28;20293;-81
2021/09/21 03:19:05;;;;;;;10.33;9.10;;;12.30;99.90;;;;;;4977436;28;20207;-78
2021/09/21 03:21:32;;;;;;;10.47;9.37;;;12.30;99.90;;;;;;4975792;28;20651;-80
2021/09/21 03:23:59;;;;;;;10.33;8.63;;;12.40;99.90;;;;;;4959970;28;20651;-79
2021/09/21 03:26:26;;;;;;;10.47;9.20;;;12.30;99.90;;;;;;4961087;28;20216;-78
2021/09/21 03:28:52;;;;;;;16.33;15.03;;;12.40;99.90;;;;;;4960382;28;20192;-80
2021/09/21 03:31:19;;;;;;;11.83;10.63;;;12.40;99.90;;;;;;4975098;28;20599;-79
2021/09/21 03:33:46;;;;;;;10.97;9.63;;;12.40;99.90;;;;;;4978055;28;20731;-80
2021/09/21 03:36:14;;;;;;;12.93;10.57;;;12.40;99.90;;;;;;4965519;28;20564;-80
2021/09/21 03:38:41;;;;;;;13.00;10.47;;;12.40;99.90;;;;;;4960658;28;20216;-80
2021/09/21 03:41:08;;;;;;;13.43;10.70;;;12.40;99.90;;;;;;4966102;28;20655;-79
2021/09/21 03:43:35;;;;;;;15.07;9.90;;;12.30;99.90;;;;;;4960938;28;20204;-79
2021/09/21 03:46:02;;;;;;;11.47;10.13;;;12.40;99.90;;;;;;4974710;28;20808;-78
2021/09/21 03:48:29;;;;;;;10.43;8.90;;;12.40;99.90;;;;;;4954390;28;20224;-78
2021/09/21 03:50:55;;;;;;;16.33;14.93;;;12.50;99.90;;;;;;4978739;28;20216;-78
2021/09/21 03:53:23;;;;;;;11.87;9.20;;;12.40;99.90;;;;;;4961633;28;20209;-77
2021/09/21 03:55:50;;;;;;;10.60;9.50;;;12.40;99.90;;;;;;4973794;28;20242;-78
2021/09/21 03:58:17;;;;;;;11.57;9.60;;;12.40;99.90;;;;;;4974357;28;20542;-80
2021/09/21 04:00:44;;;;;;;12.43;10.20;;;12.40;99.90;;;;;;4962050;28;20633;-77
2021/09/21 04:03:11;;;;;;;9.87;8.87;;;12.40;99.90;;;;;;4978858;28;20215;-79
2021/09/21 04:05:38;;;;;;;11.17;8.90;;;12.40;99.90;;;;;;4978601;28;20268;-78
2021/09/21 04:08:05;;;;;;;13.10;10.30;;;12.40;99.90;;;;;;4960030;28;20673;-82
2021/09/21 04:10:33;;;;;;;11.13;10.03;;;12.50;99.90;;;;;;4970832;28;20222;-81
2021/09/21 04:13:00;;;;;;;11.90;9.70;;;12.50;99.90;;;;;;4970046;28;20199;-84
2021/09/21 04:15:27;;;;;;;15.30;13.83;;;12.50;99.90;;;;;;4976371;28;20221;-84
2021/09/21 04:17:54;;;;;;;18.87;17.17;;;12.40;99.90;;;;;;4968324;28;20248;-83
2021/09/21 04:20:21;;;;;;;11.23;10.13;;;12.40;99.90;;;;;;4976380;28;20281;-82
2021/09/21 04:22:48;;;;;;;12.43;11.07;;;12.50;99.90;;;;;;4959257;28;20208;-80
2021/09/21 04:25:15;;;;;;;11.20;10.07;;;12.50;99.90;;;;;;4971879;28;20283;-82
2021/09/21 04:27:43;;;;;;;11.37;10.17;;;12.50;99.90;;;;;;4958174;28;20216;-82
2021/09/21 04:30:13;;;;;;;10.13;8.53;;;12.50;99.90;;;;;;4976420;28;21169;-83
2021/09/21 04:32:39;;;;;;;10.87;9.67;;;12.50;99.90;;;;;;4975028;28;20257;-81
2021/09/21 04:35:07;;;;;;;11.53;9.87;;;12.50;99.90;;;;;;4972587;28;20207;-83
2021/09/21 04:37:34;;;;;;;14.53;11.17;;;12.50;99.90;;;;;;4954965;28;20227;-82
2021/09/21 04:40:00;;;;;;;10.63;9.53;;;12.50;99.90;;;;;;4971806;28;20730;-82
2021/09/21 04:42:27;;;;;;;10.97;9.83;;;12.50;99.90;;;;;;4953531;28;20208;-82
2021/09/21 04:44:55;;;;;;;13.43;11.13;;;12.50;99.90;;;;;;4958105;28;20200;-83
2021/09/21 04:47:22;;;;;;;12.30;10.53;;;12.50;99.90;;;;;;4951720;28;20228;-82
2021/09/21 04:49:49;;;;;;;12.60;11.30;;;12.50;99.90;;;;;;4978540;28;20234;-78
2021/09/21 04:52:16;;;;;;;12.07;9.60;;;12.50;99.90;;;;;;4964309;28;20212;-78
2021/09/21 04:54:43;;;;;;;12.10;10.20;;;12.40;99.90;;;;;;4961088;29;20229;-77
2021/09/21 04:57:10;;;;;;;11.33;10.00;;;12.40;99.90;;;;;;4949882;28;20254;-79
2021/09/21 04:59:37;;;;;;;14.60;11.07;;;12.40;99.90;;;;;;4961231;28;20743;-78
2021/09/21 05:02:05;;;;;;;11.00;9.80;;;12.40;99.90;;;;;;4976955;28;20249;-78
2021/09/21 05:04:32;;;;;;;13.67;10.57;;;12.40;99.90;;;;;;4977148;28;20676;-78
2021/09/21 05:06:59;;;;;;;13.63;11.13;;;12.50;99.90;;;;;;4975092;28;20264;-79
2021/09/21 05:09:25;;;;;;;16.47;14.77;;;12.40;99.90;;;;;;4962559;28;20715;-78
2021/09/21 05:11:52;;;;;;;12.50;10.53;;;12.40;99.90;;;;;;4977973;28;20308;-79
2021/09/21 05:14:19;;;;;;;14.50;11.90;;;12.40;99.90;;;;;;4959080;28;20212;-78
2021/09/21 05:16:46;;;;;;;14.07;11.60;;;12.40;99.90;;;;;;4982142;28;20265;-78
2021/09/21 05:19:14;;;;;;;13.67;11.37;;;12.50;99.90;;;;;;4961079;28;20203;-78
2021/09/21 05:21:42;;;;;;;16.50;12.93;;;12.40;99.90;;;;;;4976151;28;20244;-78
2021/09/21 05:24:09;;;;;;;15.90;12.10;;;12.50;99.90;;;;;;4976011;28;20231;-79
2021/09/21 05:26:36;;;;;;;13.80;11.40;;;12.40;99.90;;;;;;4976352;28;20256;-78
2021/09/21 05:29:04;;;;;;;13.63;11.33;;;12.50;99.90;;;;;;4963803;28;20207;-78
2021/09/21 05:31:31;;;;;;;13.43;10.97;;;12.50;99.90;;;;;;4981018;28;20295;-78
2021/09/21 05:33:58;;;;;;;12.07;10.47;;;12.60;99.90;;;;;;4956918;28;20200;-78
2021/09/21 05:36:26;;;;;;;12.80;10.97;;;12.50;99.90;;;;;;4961072;28;20196;-78
2021/09/21 05:38:53;;;;;;;15.70;12.63;;;12.50;99.90;;;;;;4974688;28;20208;-77
2021/09/21 05:41:20;;;;;;;13.27;11.87;;;12.50;99.90;;;;;;4976918;28;20228;-78
2021/09/21 05:43:47;;;;;;;12.63;11.07;;;12.50;99.90;;;;;;4962989;28;20260;-78
2021/09/21 05:46:14;;;;;;;13.23;11.50;;;12.50;99.90;;;;;;4980029;28;20208;-77
2021/09/21 05:48:41;;;;;;;12.90;11.40;;;12.50;99.90;;;;;;4980495;28;20205;-79
2021/09/21 05:51:08;;;;;;;14.27;12.67;;;12.50;99.90;;;;;;4963058;28;20231;-78
2021/09/21 05:53:36;;;;;;;13.47;12.10;;;12.50;99.90;;;;;;4957199;28;20258;-79
2021/09/21 05:56:03;;;;;;;14.07;12.57;;;12.50;99.90;;;;;;4973633;28;20255;-77
2021/09/21 05:58:29;;;;;;;12.27;11.00;;;12.60;99.90;;;;;;4963465;28;20211;-79
2021/09/21 06:00:57;;;;;;;12.53;10.93;;;12.60;99.90;;;;;;4977170;28;20219;-78
2021/09/21 06:03:24;;;;;;;14.80;13.40;;;12.60;99.90;;;;;;4975911;28;20243;-77
2021/09/21 06:05:51;;;;;;;20.27;18.47;;;12.60;99.90;;;;;;4954440;28;20200;-78
2021/09/21 06:08:18;;;;;;;13.13;11.70;;;12.60;99.90;;;;;;4975350;28;20352;-77
2021/09/21 06:10:46;;;;;;;14.97;11.03;;;12.70;99.90;;;;;;4973774;28;20233;-78
2021/09/21 06:13:13;;;;;;;13.90;10.60;;;12.70;99.90;;;;;;4979773;28;20210;-78
2021/09/21 06:15:40;;;;;;;14.63;12.53;;;12.70;99.90;;;;;;4958138;28;20236;-78
2021/09/21 06:18:07;;;;;;;13.00;11.07;;;12.80;99.90;;;;;;4962240;28;20204;-77
2021/09/21 06:20:34;;;;;;;12.63;10.97;;;12.90;99.90;;;;;;4985869;23;20233;-78
2021/09/21 06:23:00;;;;;;;13.00;11.33;;;12.90;99.90;;;;;;5013368;28;20273;-78
2021/09/21 06:25:27;;;;;;;14.27;11.37;;;12.90;99.90;;;;;;5012420;28;20208;-78
2021/09/21 06:27:55;;;;;;;15.27;10.93;;;13.00;99.90;;;;;;4992218;28;20657;-78
2021/09/21 06:30:22;;;;;;;12.20;10.90;;;13.10;99.90;;;;;;4992228;28;20199;-78
2021/09/21 06:32:49;;;;;;;16.93;15.43;;;13.40;99.90;;;;;;5007374;28;20215;-78
2021/09/21 06:35:16;;;;;;;11.57;9.97;;;13.60;99.90;;;;;;5031906;28;20196;-78
2021/09/21 06:37:43;;;;;;;12.57;10.33;;;13.80;99.90;;;;;;5030914;28;20191;-78
2021/09/21 06:40:12;;;;;;;11.00;9.67;;;13.90;99.90;;;;;;5012250;28;20257;-78
2021/09/21 06:42:41;;;;;;;19.03;17.40;;;14.10;99.90;;;;;;5012463;28;20655;-78
2021/09/21 06:45:13;;;;;;;15.00;13.50;;;14.20;99.90;;;;;;5014474;28;20429;-76
2021/09/21 06:47:40;;;;;;;18.30;16.80;;;14.30;99.90;;;;;;5034956;28;20246;-76
2021/09/21 06:50:08;;;;;;;18.23;16.73;;;14.40;99.90;;;;;;5017180;28;20204;-76
2021/09/21 06:52:35;;;;;;;19.90;18.30;;;14.50;99.90;;;;;;5035929;28;20221;-78
2021/09/21 06:55:05;;;;;;;20.60;18.93;;;14.40;99.90;;;;;;5020674;28;20235;-77
2021/09/21 06:57:32;;;;;;;12.17;10.37;;;14.30;99.90;;;;;;5034332;28;20192;-77
2021/09/21 06:59:59;;;;;;;15.33;13.93;;;14.40;99.90;;;;;;5018284;28;20200;-77
2021/09/21 07:02:27;;;;;;;16.33;14.73;;;14.60;99.90;;;;;;5018302;28;20215;-76
2021/09/21 07:04:54;;;;;;;10.33;9.17;;;14.70;99.90;;;;;;5032691;28;20196;-76
2021/09/21 07:07:20;;;;;;;15.10;13.70;;;14.70;99.90;;;;;;5030869;28;20221;-76
2021/09/21 07:09:47;;;;;;;12.27;9.97;;;15.00;99.90;;;;;;5012971;28;20620;-76
2021/09/21 07:12:14;;;;;;;12.40;11.07;;;15.00;99.90;;;;;;5032905;28;20523;-77
2021/09/21 07:14:41;;;;;;;12.37;10.30;;;15.00;99.90;;;;;;5033523;28;20201;-77
2021/09/21 07:17:08;;;;;;;10.57;9.47;;;14.90;99.90;;;;;;5038999;28;20200;-77
2021/09/21 07:19:36;;;;;;;11.63;10.43;;;14.90;99.90;;;;;;5052402;28;20199;-77
2021/09/21 07:22:03;;;;;;;13.83;10.50;;;14.80;99.90;;;;;;5038722;28;20221;-77
2021/09/21 07:24:30;;;;;;;14.10;12.90;;;14.80;99.90;;;;;;5033900;28;20230;-77
2021/09/21 07:26:57;;;;;;;16.40;15.00;;;14.80;99.90;;;;;;5036385;28;20281;-77
2021/09/21 07:29:24;;;;;;;12.17;10.97;;;14.80;99.90;;;;;;5016895;28;20265;-77
2021/09/21 07:31:52;;;;;;;10.63;9.53;;;14.70;99.90;;;;;;5010247;28;20265;-77
2021/09/21 07:34:19;;;;;;;10.60;8.67;;;14.70;99.90;;;;;;5028760;28;20198;-77
2021/09/21 07:36:51;;;;;;;10.57;9.40;;;14.70;99.90;;;;;;5012399;28;20200;-77
2021/09/21 07:39:18;;;;;;;12.90;11.70;;;14.70;99.90;;;;;;5013357;28;20202;-77
2021/09/21 07:41:45;;;;;;;14.23;12.90;;;14.70;99.90;;;;;;5033837;28;20244;-77
2021/09/21 07:44:12;;;;;;;12.70;11.50;;;14.70;99.90;;;;;;5012871;28;20565;-77
2021/09/21 07:46:39;;;;;;;14.77;13.37;;;14.80;99.90;;;;;;5017345;28;20720;-77
2021/09/21 07:49:06;;;;;;;16.73;15.30;;;14.90;99.90;;;;;;5035448;28;20727;-77
2021/09/21 07:51:32;;;;;;;15.97;14.67;;;14.90;99.90;;;;;;5031883;28;20240;-77
2021/09/21 07:54:00;;;;;;;13.67;12.37;;;15.00;99.90;;;;;;5013641;28;20205;-77
2021/09/21 07:56:28;;;;;;;10.10;8.53;;;15.10;99.90;;;;;;5013014;28;20658;-77
2021/09/21 07:58:55;;;;;;;14.50;13.27;;;15.30;99.90;;;;;;5035765;28;20184;-77
2021/09/21 08:01:22;;;;;;;14.63;13.33;;;15.30;99.90;;;;;;5030928;28;20275;-77
2021/09/21 08:03:49;;;;;;;14.10;12.83;;;15.30;99.90;;;;;;5035738;28;20192;-77
2021/09/21 08:06:16;;;;;;;13.80;12.50;;;15.40;99.90;;;;;;5030570;28;20254;-77
2021/09/21 08:08:45;;;;;;;11.77;10.77;;;15.30;99.90;;;;;;5015976;28;20235;-77
2021/09/21 08:11:13;;;;;;;14.00;12.80;;;15.20;99.90;;;;;;5030518;28;20220;-77
2021/09/21 08:13:40;;;;;;;14.10;12.90;;;15.30;99.90;;;;;;5028587;28;20208;-77
2021/09/21 08:16:08;;;;;;;13.83;12.73;;;15.40;99.90;;;;;;5028079;28;20268;-77
2021/09/21 08:18:36;;;;;;;14.13;13.03;;;15.60;99.90;;;;;;5031589;28;20684;-77
2021/09/21 08:21:03;;;;;;;14.70;13.60;;;15.70;99.90;;;;;;5010699;28;20286;-77
2021/09/21 08:23:30;;;;;;;14.80;13.60;;;15.70;99.90;;;;;;5012293;28;20202;-77
2021/09/21 08:25:57;;;;;;;14.10;12.67;;;15.70;99.90;;;;;;5015952;28;20197;-77
2021/09/21 08:28:25;;;;;;;14.80;13.40;;;15.60;99.90;;;;;;5013600;28;20221;-77
2021/09/21 08:30:52;;;;;;;15.00;13.53;;;15.80;99.90;;;;;;5027029;28;20639;-77
2021/09/21 08:33:19;;;;;;;15.10;14.00;;;15.60;99.90;;;;;;5011616;28;20210;-77
2021/09/21 08:35:45;;;;;;;14.37;13.17;;;15.30;99.90;;;;;;5028365;28;20262;-77
2021/09/21 08:38:13;;;;;;;16.13;14.93;;;15.50;99.90;;;;;;5028689;28;20670;-77
2021/09/21 08:40:40;;;;;;;14.10;12.90;;;15.50;99.90;;;;;;5031497;28;20209;-77
2021/09/21 08:43:07;;;;;;;7.77;6.97;;;15.50;99.90;;;;;;5010527;28;20703;-77
2021/09/21 08:45:35;;;;;;;7.47;6.67;;;15.60;99.90;;;;;;5032785;28;20202;-77
2021/09/21 08:48:03;;;;;;;11.57;10.47;;;15.70;99.90;;;;;;5030056;28;20225;-77
2021/09/21 08:50:30;;;;;;;7.60;6.87;;;15.60;99.90;;;;;;5011651;28;20202;-77
2021/09/21 08:52:57;;;;;;;7.40;6.57;;;15.60;99.90;;;;;;5011180;28;20277;-77
2021/09/21 08:55:26;;;;;;;7.23;6.30;;;15.60;99.90;;;;;;5010639;28;20202;-77
2021/09/21 08:57:54;;;;;;;8.70;6.87;;;15.80;99.90;;;;;;5032097;28;20184;-77
2021/09/21 09:00:24;;;;;;;7.37;6.50;;;16.40;99.90;;;;;;5012139;28;20260;-77
2021/09/21 09:03:02;;;;;;;8.00;7.20;;;16.80;99.90;;;;;;5007984;28;20235;-77
2021/09/21 09:05:42;;;;;;;7.00;6.30;;;17.00;99.90;;;;;;5031594;28;20197;-77
2021/09/21 09:08:09;;;;;;;8.53;7.10;;;17.30;99.90;;;;;;5011662;28;20229;-77
2021/09/21 09:10:36;;;;;;;7.27;6.57;;;17.40;99.90;;;;;;5011376;28;20207;-77
2021/09/21 09:13:03;;;;;;;7.03;5.97;;;17.60;99.90;;;;;;5028836;28;20260;-77
2021/09/21 09:15:29;;;;;;;7.87;6.37;;;18.00;99.90;;;;;;5010715;28;20218;-77
2021/09/21 09:17:59;;;;;;;13.27;12.27;;;18.00;99.90;;;;;;5013365;28;20251;-78
2021/09/21 09:20:38;;;;;;;12.67;11.67;;;18.30;99.90;;;;;;5013490;28;20257;-78
2021/09/21 09:23:07;;;;;;;14.53;13.53;;;18.30;99.90;;;;;;5028043;28;20293;-78
2021/09/21 09:25:40;;;;;;;14.10;13.10;;;18.30;99.90;;;;;;5008824;28;20242;-77
2021/09/21 09:28:14;;;;;;;7.23;6.53;;;18.50;99.90;;;;;;5030390;28;20219;-78
2021/09/21 09:30:42;;;;;;;14.30;13.20;;;18.60;99.90;;;;;;5011933;28;20265;-77
2021/09/21 09:33:10;;;;;;;10.23;6.90;;;18.90;99.90;;;;;;5029023;28;20203;-78
2021/09/21 09:35:39;;;;;;;8.23;6.70;;;18.80;99.90;;;;;;5010935;28;20212;-78
2021/09/21 09:38:08;;;;;;;9.40;7.07;;;18.70;99.90;;;;;;5033672;28;20283;-78
2021/09/21 09:40:41;;;;;;;11.97;10.97;;;18.00;99.90;;;;;;5016157;28;20196;-77
2021/09/21 09:43:08;;;;;;;8.13;6.00;;;17.90;99.90;;;;;;5004096;28;20228;-78
2021/09/21 09:45:38;;;;;;;5.90;5.30;;;18.00;99.90;;;;;;5008594;28;20205;-77
2021/09/21 09:48:06;;;;;;;7.13;6.47;;;18.20;99.90;;;;;;5030833;28;20216;-78
2021/09/21 09:50:37;;;;;;;6.70;6.07;;;18.30;99.90;;;;;;5034159;28;20253;-78
2021/09/21 09:53:10;;;;;;;7.93;7.23;;;18.20;99.90;;;;;;5030898;28;20201;-78
2021/09/21 09:55:37;;;;;;;6.00;5.40;;;18.40;99.90;;;;;;5014974;28;20200;-78
2021/09/21 09:58:06;;;;;;;6.23;5.63;;;18.50;99.90;;;;;;5010288;28;20246;-78
2021/09/21 10:00:34;;;;;;;6.67;6.07;;;18.60;99.90;;;;;;5028725;28;20199;-78
2021/09/21 10:03:02;;;;;;;5.70;5.10;;;19.10;99.90;;;;;;5015990;28;20253;-78
2021/09/21 10:05:30;;;;;;;6.17;5.37;;;19.80;99.90;;;;;;5008825;28;20196;-78
2021/09/21 10:07:59;;;;;;;13.40;12.50;;;19.80;99.90;;;;;;5012211;28;20229;-78
2021/09/21 10:10:26;;;;;;;7.00;5.67;;;19.00;99.90;;;;;;5030420;28;20197;-78
2021/09/21 10:12:53;;;;;;;11.77;10.87;;;18.80;99.90;;;;;;5008521;28;20244;-78
2021/09/21 10:15:21;;;;;;;12.60;11.70;;;18.60;99.90;;;;;;5012882;28;20206;-78
2021/09/21 10:17:53;;;;;;;12.33;11.47;;;18.40;99.90;;;;;;5012296;28;20209;-78
2021/09/21 10:20:21;;;;;;;12.87;11.87;;;18.20;99.90;;;;;;5013767;28;20210;-78
2021/09/21 10:22:53;;;;;;;12.70;11.70;;;18.00;99.90;;;;;;5011581;28;20701;-76
2021/09/21 10:25:29;;;;;;;12.63;11.73;;;18.00;99.90;;;;;;5009548;28;20210;-77
2021/09/21 10:27:56;;;;;;;13.10;12.10;;;18.00;99.90;;;;;;5010096;28;20235;-77
2021/09/21 10:30:23;;;;;;;13.07;12.07;;;17.80;99.90;;;;;;5035499;28;20192;-77
2021/09/21 10:32:52;;;;;;;12.03;11.23;;;17.90;99.90;;;;;;5027667;28;20635;-77
2021/09/21 10:35:21;;;;;;;12.77;11.87;;;18.00;99.90;;;;;;5009656;28;20211;-77
2021/09/21 10:37:57;;;;;;;9.70;8.90;;;17.90;99.90;;;;;;5014535;28;20199;-78
2021/09/21 10:40:37;;;;;;;11.80;11.00;;;18.00;99.90;;;;;;5014577;28;20254;-77
2021/09/21 10:43:07;;;;;;;11.30;10.40;;;17.80;99.90;;;;;;5024653;28;20557;-78
2021/09/21 10:45:34;;;;;;;12.43;11.53;;;17.90;99.90;;;;;;5012550;28;20202;-77
2021/09/21 10:48:03;;;;;;;12.10;11.20;;;17.90;99.90;;;;;;5015341;28;20212;-77
2021/09/21 10:50:30;;;;;;;12.00;11.10;;;17.80;99.90;;;;;;5015760;28;20207;-78
2021/09/21 10:53:04;;;;;;;12.60;11.60;;;17.80;99.90;;;;;;5011147;28;20281;-78
2021/09/21 10:55:36;;;;;;;12.30;11.40;;;18.00;99.90;;;;;;5010903;28;20230;-77
2021/09/21 10:58:04;;;;;;;12.53;11.63;;;18.20;99.90;;;;;;5027500;28;20223;-78
2021/09/21 11:00:34;;;;;;;12.70;11.80;;;18.50;99.90;;;;;;5032414;28;20253;-78
2021/09/21 11:03:04;;;;;;;12.13;11.23;;;18.40;99.90;;;;;;5015461;28;20204;-78
2021/09/21 11:05:31;;;;;;;12.33;11.23;;;18.40;99.90;;;;;;5031397;28;20601;-77
2021/09/21 11:07:59;;;;;;;11.53;10.73;;;18.20;99.90;;;;;;5035262;28;20212;-77
2021/09/21 11:10:28;;;;;;;12.50;11.50;;;18.20;99.90;;;;;;5032419;28;20199;-77
2021/09/21 11:12:57;;;;;;;12.03;11.13;;;18.00;99.90;;;;;;5025865;28;20320;-77
2021/09/21 11:15:27;;;;;;;14.47;12.17;;;18.00;99.90;;;;;;5030176;28;20253;-78
2021/09/21 11:18:04;;;;;;;12.67;11.67;;;17.80;99.90;;;;;;5004621;28;20237;-78
2021/09/21 11:20:32;;;;;;;12.60;11.67;;;17.60;99.90;;;;;;5016996;28;20204;-77
2021/09/21 11:23:03;;;;;;;11.57;10.77;;;17.60;99.90;;;;;;5019958;28;20254;-78
2021/09/21 11:25:31;;;;;;;12.30;11.40;;;17.90;99.90;;;;;;5039550;28;20188;-77
2021/09/21 11:27:59;;;;;;;12.90;11.90;;;18.00;99.90;;;;;;5021498;28;20254;-77
2021/09/21 11:30:26;;;;;;;13.10;12.00;;;18.10;99.90;;;;;;5038814;28;20189;-77
2021/09/21 11:32:53;;;;;;;12.57;11.57;;;18.20;99.90;;;;;;5015152;28;20200;-78
2021/09/21 11:35:21;;;;;;;12.50;11.50;;;18.20;99.90;;;;;;5016090;28;20220;-78
2021/09/21 11:37:50;;;;;;;12.73;11.70;;;18.10;99.90;;;;;;5033179;28;20200;-78
2021/09/21 11:40:25;;;;;;;11.53;10.63;;;18.30;99.90;;;;;;5021644;28;20485;-77
2021/09/21 11:42:53;;;;;;;12.00;11.10;;;18.40;99.90;;;;;;5026856;28;20197;-78
2021/09/21 11:45:21;;;;;;;12.07;11.17;;;18.60;99.90;;;;;;5017259;28;20204;-78
2021/09/21 11:47:49;;;;;;;12.00;11.07;;;18.70;99.90;;;;;;5030696;28;20196;-77
2021/09/21 11:50:20;;;;;;;11.80;10.90;;;18.50;99.90;;;;;;5012458;28;20690;-78
2021/09/21 11:52:49;;;;;;;11.20;10.37;;;18.50;99.90;;;;;;5035190;28;20278;-78
2021/09/21 11:55:17;;;;;;;9.90;9.07;;;18.40;99.90;;;;;;5034414;28;20210;-77
2021/09/21 11:57:47;;;;;;;6.23;5.63;;;18.30;99.90;;;;;;5015538;28;20669;-78
2021/09/21 12:00:24;;;;;;;5.83;5.23;;;18.20;99.90;;;;;;5016036;28;20205;-78
2021/09/21 12:02:56;;;;;;;6.17;5.57;;;18.10;99.90;;;;;;5010713;28;20267;-78
2021/09/21 12:05:24;;;;;;;7.03;6.33;;;18.20;99.90;;;;;;5034256;28;20197;-77
2021/09/21 12:07:52;;;;;;;6.17;5.57;;;18.10;99.90;;;;;;5029629;28;20201;-78
2021/09/21 12:10:20;;;;;;;8.20;5.60;;;18.10;99.90;;;;;;5012547;28;20224;-78
2021/09/21 12:12:47;;;;;;;6.10;5.50;;;18.10;99.90;;;;;;5015666;28;20578;-77
2021/09/21 12:15:14;;;;;;;6.87;5.97;;;18.20;99.90;;;;;;5015403;28;20208;-78
2021/09/21 12:17:45;;;;;;;6.50;5.80;;;18.30;99.90;;;;;;5014365;28;20208;-78
2021/09/21 12:20:13;;;;;;;5.67;5.17;;;18.40;99.90;;;;;;5014952;28;20205;-78
2021/09/21 12:22:50;;;;;;;6.97;6.23;;;18.40;99.90;;;;;;5004126;23;20230;-77
2021/09/21 12:25:17;;;;;;;5.77;5.13;;;18.40;99.90;;;;;;4973592;28;20688;-77
2021/09/21 12:27:44;;;;;;;7.20;5.97;;;18.50;99.90;;;;;;4971394;28;20721;-77
2021/09/21 12:30:12;;;;;;;8.17;6.50;;;18.50;99.90;;;;;;4987568;28;20226;-77
2021/09/21 12:32:39;;;;;;;6.30;5.70;;;18.40;99.90;;;;;;4963444;28;20231;-78
2021/09/21 12:35:10;;;;;;;7.53;6.83;;;18.60;99.90;;;;;;4958630;28;20209;-77
2021/09/21 12:37:38;;;;;;;6.33;5.70;;;18.60;99.90;;;;;;4951374;28;20640;-78
2021/09/21 12:40:16;;;;;;;11.63;10.83;;;18.60;99.90;;;;;;4958028;28;20207;-77